Startpagina
METAR-TAF:

METAR-TAF

Vliegvelden :

Hagåtña, Guam, Verenigde Staten

breedte: 13-29N, lengte: 144-48E, hoogte: 91 m

Actueel weer

Dit bericht is 59 minuten geleden gemaakt, om 20:54 UTC
Wind 8 kt uit het noordoosten
Temperatuur 26°C
Vochtigheid 89%
Druk 1012 hPa
Zicht: 16.1 km
Onbewolkt

METAR: PGUM 182054Z 05008KT 10SM CLR 26/24 A2987 RMK AO2 SLP108 T02610244 53013

Tijdstip: 07:53 (21:53 UTC)

Verwachting

Dit bericht is 4 uur en het 21 minuten geleden gemaakt, om 17:32 UTC
Verwachting geldig van 18 om 18 UTC tot 19 om 24 UTC
Wind 8 kt uit het oostnoordoosten
Zicht: 10 km
Weinig wolken op 2100 ft
buien in de omgeving
Van 18 om 2300 UTC
Wind 15 kt uit het oosten
Zicht: 10 km
Weinig wolken op 2500 ft
Van 19 om 0900 UTC
Wind 9 kt uit het oostnoordoosten
Zicht: 10 km
Weinig wolken op 2000 ft

TAF: PGUM 181732Z 1818/1924 06008KT P6SM VCSH FEW021 FM182300 08015KT P6SM FEW025 FM190900 07009KT P6SM FEW020

Waarnemingen en weersverwachtingen van meer dan 4000 vliegvelden (METAR en TAF).

De beschikbare stations zijn de gele en rode punten op de kaart.

Ga met uw muis naar het station om de naam te zien.

Klik dan om waarnemingen en weersverwachtingen te zien.

kaart wijzigen: klik op de groene knoppen met een zwart kruis om in te zoomen, op de groene knop met een streepje om uit te zoomen of op de groene pijlen voor aangrenzende kaarten.


METAR-TAF: